createdAt,value
2023-01-17T00:02:05.866Z,72.19
2023-01-17T00:04:51.916Z,70.00
2023-01-17T00:07:40.035Z,71.43
2023-01-17T00:10:16.462Z,72.27
2023-01-17T00:12:58.447Z,72.12
2023-01-17T00:15:29.295Z,72.75
2023-01-17T00:17:56.712Z,71.85
2023-01-17T00:20:49.279Z,72.92
2023-01-17T00:23:41.075Z,75.70
2023-01-17T00:26:16.622Z,76.57
2023-01-17T00:28:44.312Z,77.53
2023-01-17T00:31:15.695Z,79.07
2023-01-17T00:33:42.852Z,79.61
2023-01-17T00:36:12.502Z,79.76
2023-01-17T00:38:40.470Z,80.83
2023-01-17T00:41:11.908Z,81.68
2023-01-17T00:43:58.169Z,82.42
2023-01-17T00:46:46.545Z,83.44
2023-01-17T00:49:34.975Z,83.93
2023-01-17T00:52:20.727Z,85.05
2023-01-17T00:55:06.434Z,85.26
2023-01-17T00:57:52.088Z,85.79
2023-01-17T01:00:38.211Z,85.21
2023-01-17T01:03:30.062Z,86.84
2023-01-17T01:06:15.574Z,87.20
2023-01-17T01:09:01.001Z,88.08
2023-01-17T01:11:46.847Z,87.81
2023-01-17T01:14:32.565Z,88.20
2023-01-17T01:17:17.857Z,90.12
2023-01-17T01:20:03.627Z,90.28
2023-01-17T01:22:49.043Z,91.03
2023-01-17T01:25:34.817Z,91.13
2023-01-17T01:28:32.414Z,91.61
2023-01-17T01:31:22.876Z,91.33
2023-01-17T01:33:54.502Z,91.44
2023-01-17T01:36:21.914Z,91.72
2023-01-17T01:38:50.216Z,91.28
2023-01-17T01:41:21.721Z,90.97
2023-01-17T01:43:58.360Z,92.83
2023-01-17T01:46:41.268Z,93.20
2023-01-17T01:49:24.717Z,93.36
2023-01-17T01:52:01.680Z,92.41
2023-01-17T01:54:35.804Z,93.02
2023-01-17T01:57:05.254Z,93.80
2023-01-17T01:59:38.671Z,95.09
2023-01-17T02:02:07.600Z,96.19
2023-01-17T02:04:39.714Z,95.54
2023-01-17T02:07:19.143Z,95.67
2023-01-17T02:09:48.829Z,94.86
2023-01-17T02:12:20.117Z,93.79
2023-01-17T02:14:47.056Z,95.07
2023-01-17T02:17:32.316Z,97.08
2023-01-17T02:20:24.216Z,97.44
2023-01-17T02:23:12.941Z,97.08
2023-01-17T02:26:02.966Z,97.25
2023-01-17T02:29:01.590Z,96.92
2023-01-17T02:31:34.520Z,96.96
2023-01-17T02:34:25.046Z,96.98
2023-01-17T02:37:02.872Z,97.81
2023-01-17T02:39:41.151Z,99.32
2023-01-17T02:42:17.052Z,98.32
2023-01-17T02:44:45.279Z,98.87
2023-01-17T02:47:31.520Z,98.16
2023-01-17T02:50:14.280Z,98.46
2023-01-17T02:52:59.261Z,99.16
2023-01-17T02:56:00.520Z,99.47
2023-01-17T02:58:58.075Z,100.00
2023-01-17T03:01:43.507Z,100.00
2023-01-17T03:04:30.277Z,99.71
2023-01-17T03:07:18.950Z,99.66
2023-01-17T03:09:48.999Z,98.90
2023-01-17T03:12:24.579Z,100.00
2023-01-17T03:14:51.529Z,99.77
2023-01-17T03:17:22.176Z,99.34
2023-01-17T03:19:51.418Z,99.85
2023-01-17T03:22:18.416Z,98.68
2023-01-17T03:24:48.191Z,98.58
2023-01-17T03:27:15.127Z,99.45
2023-01-17T03:29:42.026Z,99.46
2023-01-17T03:32:08.922Z,97.90
2023-01-17T03:34:37.995Z,98.08
2023-01-17T03:37:04.939Z,98.75
2023-01-17T03:39:31.903Z,100.00
2023-01-17T03:41:58.816Z,99.68
2023-01-17T03:44:27.817Z,100.00
2023-01-17T03:46:57.275Z,100.00
2023-01-17T03:49:24.236Z,100.00
2023-01-17T03:51:51.411Z,100.00
2023-01-17T03:54:18.559Z,100.00
2023-01-17T03:56:48.069Z,100.00
2023-01-17T03:59:15.004Z,100.00
2023-01-17T04:01:45.212Z,100.00
2023-01-17T04:04:12.292Z,100.00
2023-01-17T04:06:39.173Z,100.00
2023-01-17T04:09:08.731Z,100.00
2023-01-17T04:11:35.868Z,100.00
2023-01-17T04:14:02.903Z,99.45
2023-01-17T04:16:32.083Z,99.15
2023-01-17T04:19:01.859Z,99.45
2023-01-17T04:21:28.795Z,98.82
2023-01-17T04:23:57.996Z,99.15
2023-01-17T04:26:27.289Z,98.65
2023-01-17T04:28:54.165Z,97.21
2023-01-17T04:31:21.110Z,97.27
2023-01-17T04:33:48.161Z,97.75
2023-01-17T04:36:18.133Z,98.49
2023-01-17T04:38:45.097Z,99.05
2023-01-17T04:41:14.337Z,97.51
2023-01-17T04:43:41.263Z,97.78
2023-01-17T04:46:14.355Z,97.52
2023-01-17T04:48:46.182Z,98.70
2023-01-17T04:51:15.655Z,100.00
2023-01-17T04:53:42.560Z,99.80
2023-01-17T04:56:14.825Z,100.00
2023-01-17T04:58:48.738Z,99.74
2023-01-17T05:01:15.932Z,100.00
2023-01-17T05:03:42.923Z,100.00
2023-01-17T05:06:12.422Z,100.00
2023-01-17T05:08:42.250Z,100.00
2023-01-17T05:11:11.388Z,100.00
2023-01-17T05:13:38.335Z,100.00
2023-01-17T05:16:05.977Z,100.00
2023-01-17T05:18:32.904Z,100.00
2023-01-17T05:21:04.147Z,100.00
2023-01-17T05:23:31.107Z,100.00
2023-01-17T05:26:00.494Z,100.00
2023-01-17T05:28:29.810Z,100.00
2023-01-17T05:30:56.717Z,100.00
2023-01-17T05:33:26.124Z,100.00
2023-01-17T05:35:53.119Z,100.00
2023-01-17T05:38:20.037Z,100.00
2023-01-17T05:40:46.984Z,100.00
2023-01-17T05:43:13.870Z,100.00
2023-01-17T05:45:43.329Z,100.00
2023-01-17T05:48:12.649Z,100.00
2023-01-17T05:50:39.578Z,100.00
2023-01-17T05:53:13.076Z,100.00
2023-01-17T05:55:43.108Z,99.87
2023-01-17T05:58:21.732Z,100.00
2023-01-17T06:00:53.778Z,100.00
2023-01-17T06:03:22.992Z,99.47
2023-01-17T06:05:50.241Z,98.51
2023-01-17T06:08:20.482Z,98.57
2023-01-17T06:10:47.496Z,97.66
2023-01-17T06:13:27.012Z,97.87
2023-01-17T06:16:02.644Z,98.61
2023-01-17T06:18:31.162Z,97.92
2023-01-17T06:20:58.223Z,97.69
2023-01-17T06:23:26.069Z,96.66
2023-01-17T06:25:53.080Z,98.70
2023-01-17T06:28:23.526Z,97.90
2023-01-17T06:30:51.427Z,98.22
2023-01-17T06:33:18.449Z,97.71
2023-01-17T06:35:53.627Z,97.25
2023-01-17T06:38:21.786Z,97.82
2023-01-17T06:40:51.187Z,97.83
2023-01-17T06:43:20.324Z,97.76
2023-01-17T06:45:51.292Z,97.72
2023-01-17T06:48:18.407Z,97.26
2023-01-17T06:50:46.747Z,96.68
2023-01-17T06:53:13.907Z,96.63
2023-01-17T06:55:41.472Z,95.10
2023-01-17T06:58:11.956Z,93.48
2023-01-17T07:00:40.767Z,94.10
2023-01-17T07:03:24.306Z,92.34
2023-01-17T07:05:51.994Z,92.64
2023-01-17T07:08:22.487Z,93.06
2023-01-17T07:10:49.704Z,91.21
2023-01-17T07:13:21.538Z,92.10
2023-01-17T07:15:48.702Z,91.63
2023-01-17T07:18:20.559Z,91.37
2023-01-17T07:20:50.087Z,90.76
2023-01-17T07:23:20.989Z,90.14
2023-01-17T07:26:01.110Z,90.06
2023-01-17T07:28:30.934Z,89.29
2023-01-17T07:31:00.596Z,90.32
2023-01-17T07:33:27.538Z,91.44
2023-01-17T07:35:56.704Z,90.60
2023-01-17T07:38:23.767Z,90.92
2023-01-17T07:40:50.772Z,90.66
2023-01-17T07:43:17.828Z,89.72
2023-01-17T07:45:50.894Z,89.74
2023-01-17T07:48:23.714Z,89.69
2023-01-17T07:50:58.343Z,91.00
2023-01-17T07:53:28.295Z,90.47
2023-01-17T07:56:06.122Z,91.60
2023-01-17T07:58:39.142Z,91.37
2023-01-17T08:01:13.040Z,90.82
2023-01-17T08:03:45.483Z,90.68
2023-01-17T08:06:24.371Z,90.83
2023-01-17T08:08:57.125Z,90.65
2023-01-17T08:11:24.254Z,91.01
2023-01-17T08:13:57.555Z,90.59
2023-01-17T08:16:24.984Z,93.17
2023-01-17T08:18:52.757Z,93.55
2023-01-17T08:21:19.936Z,94.49
2023-01-17T08:23:54.170Z,95.78
2023-01-17T08:26:22.600Z,96.04
2023-01-17T08:29:00.229Z,95.65
2023-01-17T08:31:30.349Z,93.57
2023-01-17T08:33:58.213Z,92.34
2023-01-17T08:36:26.323Z,91.42
2023-01-17T08:38:56.745Z,91.96
2023-01-17T08:41:27.965Z,91.31
2023-01-17T08:43:59.823Z,91.34
2023-01-17T08:46:27.709Z,90.94
2023-01-17T08:49:00.119Z,91.47
2023-01-17T08:51:33.111Z,90.74
2023-01-17T08:54:00.188Z,89.20
2023-01-17T08:56:27.684Z,91.16
2023-01-17T08:58:54.766Z,91.51
2023-01-17T09:01:21.967Z,91.71
2023-01-17T09:03:51.176Z,92.69
2023-01-17T09:06:18.902Z,92.13
2023-01-17T09:08:51.405Z,91.63
2023-01-17T09:11:18.696Z,92.42
2023-01-17T09:13:45.935Z,92.00
2023-01-17T09:16:12.986Z,91.53
2023-01-17T09:18:40.083Z,92.28
2023-01-17T09:21:17.632Z,91.84
2023-01-17T09:23:47.384Z,91.81
2023-01-17T09:26:27.672Z,90.85
2023-01-17T09:28:58.760Z,90.05
2023-01-17T09:31:32.873Z,89.41
2023-01-17T09:34:01.473Z,87.40
2023-01-17T09:36:33.995Z,81.08
2023-01-17T09:39:05.846Z,75.14
2023-01-17T09:42:16.457Z,77.84
2023-01-17T09:44:54.697Z,81.01
2023-01-17T09:47:44.527Z,81.53
2023-01-17T09:50:49.408Z,82.34
2023-01-17T09:53:24.605Z,80.68
2023-01-17T09:56:15.491Z,79.54
2023-01-17T09:59:19.348Z,79.19
2023-01-17T10:01:55.009Z,76.26
2023-01-17T10:04:51.351Z,72.45
2023-01-17T10:08:32.336Z,70.51
2023-01-17T10:12:05.538Z,74.45
2023-01-17T10:14:54.542Z,69.59
2023-01-17T10:18:19.052Z,64.18
2023-01-17T10:21:28.126Z,56.38
2023-01-17T10:24:52.099Z,50.23
2023-01-17T10:27:31.174Z,49.94
2023-01-17T10:30:01.769Z,46.39
2023-01-17T10:32:32.780Z,46.78
2023-01-17T10:35:21.469Z,46.86
2023-01-17T10:37:50.562Z,43.24
2023-01-17T10:40:57.016Z,40.79
2023-01-17T10:44:20.117Z,42.61
2023-01-17T10:47:12.824Z,47.63
2023-01-17T10:49:52.088Z,54.26
2023-01-17T10:52:40.455Z,58.34
2023-01-17T10:55:58.647Z,63.43
2023-01-17T10:58:34.780Z,62.51
2023-01-17T11:01:15.970Z,54.26
2023-01-17T11:03:46.596Z,49.21
2023-01-17T11:06:29.604Z,46.70
2023-01-17T11:09:02.417Z,43.52
2023-01-17T11:11:45.661Z,40.33
2023-01-17T11:14:30.793Z,40.28
2023-01-17T11:17:07.655Z,40.23
2023-01-17T11:19:38.786Z,40.39
2023-01-17T11:22:14.142Z,37.61
2023-01-17T11:24:54.086Z,37.14
2023-01-17T11:27:42.395Z,37.00
2023-01-17T11:30:19.531Z,35.63
2023-01-17T11:33:09.194Z,38.17
2023-01-17T11:35:41.971Z,38.40
2023-01-17T11:38:22.518Z,40.39
2023-01-17T11:41:16.413Z,41.04
2023-01-17T11:43:58.674Z,42.11
2023-01-17T11:46:28.300Z,40.83
2023-01-17T11:49:01.524Z,43.18
2023-01-17T11:51:41.534Z,41.65
2023-01-17T11:54:42.463Z,39.89
2023-01-17T11:57:30.763Z,39.46
2023-01-17T12:00:28.799Z,41.07
2023-01-17T12:03:15.150Z,40.48
2023-01-17T12:06:06.779Z,38.39
2023-01-17T12:09:07.386Z,41.76
2023-01-17T12:12:12.848Z,45.21
2023-01-17T12:15:00.338Z,47.88
2023-01-17T12:17:38.171Z,46.76
2023-01-17T12:20:44.534Z,45.57
2023-01-17T12:23:44.178Z,48.21
2023-01-17T12:27:06.971Z,43.70
2023-01-17T12:29:58.745Z,42.59
2023-01-17T12:32:34.533Z,44.49
2023-01-17T12:35:17.957Z,46.42
2023-01-17T12:38:04.241Z,50.70
2023-01-17T12:40:51.412Z,50.28
2023-01-17T12:43:38.067Z,52.01
2023-01-17T12:46:24.012Z,47.90
2023-01-17T12:49:20.850Z,43.18
2023-01-17T12:51:57.691Z,42.20
2023-01-17T12:54:35.815Z,42.50
2023-01-17T12:57:08.551Z,45.16
2023-01-17T12:59:48.628Z,47.12
2023-01-17T13:02:50.636Z,48.43
2023-01-17T13:05:40.470Z,50.51
2023-01-17T13:08:38.796Z,51.59
2023-01-17T13:11:44.069Z,52.67
2023-01-17T13:14:11.184Z,53.00
2023-01-17T13:17:19.109Z,55.32
2023-01-17T13:20:01.015Z,55.37
2023-01-17T13:22:28.954Z,56.06
2023-01-17T13:25:03.487Z,55.83
2023-01-17T13:28:03.362Z,56.68
2023-01-17T13:30:51.535Z,56.89
2023-01-17T13:33:47.220Z,56.94
2023-01-17T13:36:57.096Z,57.62
2023-01-17T13:39:38.827Z,56.80
2023-01-17T13:43:05.991Z,55.26
2023-01-17T13:45:38.117Z,57.24
2023-01-17T13:48:16.243Z,57.00
2023-01-17T13:50:59.576Z,55.93
2023-01-17T13:53:29.192Z,53.28
2023-01-17T13:56:19.771Z,46.83
2023-01-17T13:58:54.317Z,41.58
2023-01-17T14:01:24.355Z,40.40
2023-01-17T14:03:53.424Z,40.03
2023-01-17T14:06:41.043Z,41.49
2023-01-17T14:09:29.366Z,43.00
2023-01-17T14:12:11.459Z,47.24
2023-01-17T14:14:43.134Z,49.62
2023-01-17T14:17:29.304Z,51.83
2023-01-17T14:20:02.293Z,52.70
2023-01-17T14:22:57.421Z,54.77
2023-01-17T14:25:29.980Z,56.01
2023-01-17T14:28:19.482Z,57.26
2023-01-17T14:30:46.601Z,57.26
2023-01-17T14:33:28.866Z,57.89
2023-01-17T14:36:06.028Z,56.41
2023-01-17T14:38:41.666Z,53.46
2023-01-17T14:41:15.050Z,52.74
2023-01-17T14:43:45.355Z,53.81
2023-01-17T14:46:27.614Z,55.00
2023-01-17T14:49:35.315Z,57.24
2023-01-17T14:52:04.766Z,58.46
2023-01-17T14:54:31.733Z,58.78
2023-01-17T14:57:23.764Z,59.66
2023-01-17T14:59:52.952Z,59.57
2023-01-17T15:02:20.055Z,59.42
2023-01-17T15:04:54.741Z,59.35
2023-01-17T15:07:22.714Z,59.94
2023-01-17T15:09:49.745Z,61.65
2023-01-17T15:12:16.704Z,60.61
2023-01-17T15:14:47.001Z,62.20
2023-01-17T15:17:24.785Z,63.21
2023-01-17T15:19:57.345Z,64.38
2023-01-17T15:22:26.486Z,64.65
2023-01-17T15:24:53.976Z,64.90
2023-01-17T15:27:24.615Z,66.33
2023-01-17T15:29:52.058Z,65.86
2023-01-17T15:32:23.258Z,65.39
2023-01-17T15:34:51.838Z,65.64
2023-01-17T15:37:35.494Z,67.23
2023-01-17T15:40:25.622Z,67.41
2023-01-17T15:43:01.047Z,68.12
2023-01-17T15:45:31.593Z,67.71
2023-01-17T15:48:38.616Z,68.43
2023-01-17T15:51:05.645Z,68.43
2023-01-17T15:53:37.366Z,68.17
2023-01-17T15:56:45.561Z,67.88
2023-01-17T15:59:32.082Z,69.06
2023-01-17T16:02:00.105Z,68.64
2023-01-17T16:04:37.127Z,71.02
2023-01-17T16:07:21.056Z,71.40
2023-01-17T16:09:53.201Z,71.32
2023-01-17T16:12:20.047Z,71.24
2023-01-17T16:15:06.279Z,72.46
2023-01-17T16:17:39.745Z,72.92
2023-01-17T16:20:15.857Z,73.46
2023-01-17T16:22:46.300Z,73.60
2023-01-17T16:25:22.768Z,73.59
2023-01-17T16:27:50.625Z,74.73
2023-01-17T16:30:25.724Z,75.04
2023-01-17T16:32:52.835Z,74.63
2023-01-17T16:35:31.458Z,74.32
2023-01-17T16:38:04.992Z,74.85
2023-01-17T16:40:46.209Z,75.51
2023-01-17T16:43:19.819Z,76.04
2023-01-17T16:45:52.056Z,76.14
2023-01-17T16:48:20.253Z,76.41
2023-01-17T16:50:52.224Z,76.85
2023-01-17T16:53:27.994Z,77.12
2023-01-17T16:56:01.989Z,77.15
2023-01-17T16:58:33.197Z,76.87
2023-01-17T17:01:02.671Z,76.25
2023-01-17T17:03:29.759Z,77.19
2023-01-17T17:06:00.802Z,77.65
2023-01-17T17:08:31.407Z,76.90
2023-01-17T17:11:17.498Z,78.36
2023-01-17T17:13:47.420Z,78.34
2023-01-17T17:16:20.924Z,79.21
2023-01-17T17:18:56.485Z,78.98
2023-01-17T17:21:28.868Z,79.31
2023-01-17T17:23:58.535Z,79.55
2023-01-17T17:26:35.311Z,79.81
2023-01-17T17:29:03.331Z,79.97
2023-01-17T17:31:30.229Z,79.84
2023-01-17T17:34:07.261Z,81.59
2023-01-17T17:36:37.567Z,81.46
2023-01-17T17:39:09.118Z,80.69
2023-01-17T17:41:40.974Z,82.55
2023-01-17T17:44:08.221Z,83.23
2023-01-17T17:46:37.997Z,83.98
2023-01-17T17:49:06.895Z,83.21
2023-01-17T17:51:39.738Z,83.66
2023-01-17T17:54:10.772Z,82.95
2023-01-17T17:56:40.196Z,84.41
2023-01-17T17:59:09.310Z,84.17
2023-01-17T18:01:40.981Z,83.59
2023-01-17T18:04:09.097Z,84.07
2023-01-17T18:06:36.798Z,85.62
2023-01-17T18:09:04.518Z,84.31
2023-01-17T18:11:32.442Z,85.08
2023-01-17T18:14:03.998Z,85.48
2023-01-17T18:16:37.141Z,84.92
2023-01-17T18:19:08.094Z,84.12
2023-01-17T18:21:38.759Z,83.81
2023-01-17T18:24:10.664Z,84.56
2023-01-17T18:26:40.222Z,86.27
2023-01-17T18:29:10.459Z,85.92
2023-01-17T18:31:37.714Z,85.65
2023-01-17T18:34:12.892Z,85.23
2023-01-17T18:36:39.893Z,86.29
2023-01-17T18:39:20.057Z,86.49
2023-01-17T18:41:50.472Z,85.17
2023-01-17T18:44:21.828Z,84.50
2023-01-17T18:46:53.355Z,85.44
2023-01-17T18:49:20.499Z,84.99
2023-01-17T18:51:50.955Z,85.07
2023-01-17T18:54:23.457Z,84.67
2023-01-17T18:56:51.168Z,85.61
2023-01-17T18:59:18.654Z,86.67
2023-01-17T19:01:46.504Z,86.11
2023-01-17T19:04:24.737Z,86.77
2023-01-17T19:06:55.634Z,86.02
2023-01-17T19:09:22.750Z,86.17
2023-01-17T19:11:51.927Z,85.58
2023-01-17T19:14:18.912Z,85.33
2023-01-17T19:16:45.986Z,84.29
2023-01-17T19:19:15.598Z,85.71
2023-01-17T19:21:43.330Z,85.38
2023-01-17T19:24:14.375Z,85.60
2023-01-17T19:26:42.978Z,85.11
2023-01-17T19:29:12.506Z,84.67
2023-01-17T19:31:44.114Z,84.76
2023-01-17T19:34:14.005Z,85.21
2023-01-17T19:36:47.183Z,85.00
2023-01-17T19:39:23.095Z,85.26
2023-01-17T19:41:51.828Z,84.15
2023-01-17T19:44:21.377Z,84.78
2023-01-17T19:46:48.801Z,85.34
2023-01-17T19:49:19.803Z,85.03
2023-01-17T19:51:46.761Z,84.76
2023-01-17T19:54:15.624Z,85.04
2023-01-17T19:56:42.557Z,84.23
2023-01-17T19:59:09.617Z,84.30
2023-01-17T20:01:36.723Z,83.81
2023-01-17T20:04:07.327Z,82.82
2023-01-17T20:06:38.677Z,81.87
2023-01-17T20:09:06.996Z,81.34
2023-01-17T20:11:38.538Z,81.51
2023-01-17T20:14:05.609Z,81.83
2023-01-17T20:16:37.213Z,81.17
2023-01-17T20:19:04.771Z,81.47
2023-01-17T20:21:36.725Z,81.79
2023-01-17T20:24:06.258Z,81.81
2023-01-17T20:26:37.380Z,82.82
2023-01-17T20:29:11.350Z,82.99
2023-01-17T20:31:43.490Z,83.10
2023-01-17T20:34:13.812Z,83.46
2023-01-17T20:36:51.399Z,83.55
2023-01-17T20:39:32.176Z,84.18
2023-01-17T20:42:08.308Z,83.52
2023-01-17T20:44:38.156Z,83.60
2023-01-17T20:47:07.209Z,83.81
2023-01-17T20:49:35.058Z,84.18
2023-01-17T20:52:02.310Z,84.42
2023-01-17T20:54:32.044Z,84.71
2023-01-17T20:57:03.220Z,85.57
2023-01-17T20:59:30.297Z,86.02
2023-01-17T21:01:57.828Z,86.18
2023-01-17T21:04:28.295Z,86.32
2023-01-17T21:06:56.324Z,86.69
2023-01-17T21:09:27.976Z,86.66
2023-01-17T21:12:00.963Z,87.73
2023-01-17T21:14:31.878Z,87.23
2023-01-17T21:16:59.098Z,87.21
2023-01-17T21:19:26.433Z,87.79
2023-01-17T21:21:53.590Z,88.50
2023-01-17T21:24:20.568Z,87.96
2023-01-17T21:26:51.531Z,87.33
2023-01-17T21:29:18.702Z,86.91
2023-01-17T21:31:46.170Z,87.10
2023-01-17T21:34:13.800Z,86.81
2023-01-17T21:36:42.650Z,87.34
2023-01-17T21:39:17.153Z,86.98
2023-01-17T21:41:48.267Z,87.52
2023-01-17T21:44:23.726Z,87.76
2023-01-17T21:46:53.609Z,88.21
2023-01-17T21:49:22.331Z,88.07
2023-01-17T21:51:55.678Z,88.48
2023-01-17T21:54:58.259Z,87.99
2023-01-17T21:57:43.960Z,87.22
2023-01-17T22:00:17.034Z,88.05
2023-01-17T22:02:48.365Z,87.75
2023-01-17T22:05:18.609Z,87.82
2023-01-17T22:08:06.738Z,87.87
2023-01-17T22:10:44.483Z,88.67
2023-01-17T22:13:17.222Z,90.00
2023-01-17T22:15:45.117Z,89.74
2023-01-17T22:18:15.977Z,89.45
2023-01-17T22:20:43.128Z,89.01
2023-01-17T22:23:11.642Z,89.57
2023-01-17T22:25:38.783Z,89.29
2023-01-17T22:28:05.772Z,90.39
2023-01-17T22:30:34.890Z,90.34
2023-01-17T22:33:04.073Z,90.26
2023-01-17T22:35:33.869Z,89.85
2023-01-17T22:38:01.631Z,90.02
2023-01-17T22:40:28.607Z,90.56
2023-01-17T22:42:56.169Z,91.70
2023-01-17T22:45:27.311Z,91.38
2023-01-17T22:47:59.392Z,91.64
2023-01-17T22:50:28.775Z,90.81
2023-01-17T22:52:56.420Z,91.41
2023-01-17T22:55:23.732Z,90.22
2023-01-17T22:57:55.651Z,90.65
2023-01-17T23:00:22.845Z,89.69
2023-01-17T23:02:49.796Z,90.30
2023-01-17T23:05:17.247Z,89.76
2023-01-17T23:07:44.757Z,90.18
2023-01-17T23:10:38.090Z,89.27
2023-01-17T23:13:10.455Z,89.52
2023-01-17T23:15:57.497Z,88.88
2023-01-17T23:18:45.268Z,88.56
2023-01-17T23:21:14.494Z,87.32
2023-01-17T23:23:43.694Z,87.53
2023-01-17T23:26:13.321Z,87.93
2023-01-17T23:28:40.301Z,86.78
2023-01-17T23:31:08.652Z,86.77
2023-01-17T23:33:35.867Z,88.39
2023-01-17T23:36:09.194Z,88.78
2023-01-17T23:38:40.668Z,89.21
2023-01-17T23:41:28.062Z,89.30
2023-01-17T23:43:57.959Z,90.91
2023-01-17T23:46:26.798Z,90.63
2023-01-17T23:48:55.052Z,91.19
2023-01-17T23:51:24.742Z,91.68
2023-01-17T23:53:57.335Z,91.07
2023-01-17T23:56:25.004Z,90.20
2023-01-17T23:58:51.923Z,89.72
